Prince Of Seas — A8JI5 — position and weather

sailwx.info

Track history (hours):
 
Tides and Currents Weather Stations Pressure Air Temp Water Temp Dewpoint Dewpoint Depression Visibility Wind Speed Wind Dir Waves Ship Positions

Prince Of Seas

Last reported at 2015-May-26 20:31 UTC. Time now 2015-May-28 02:02 UTC.
Position N 37°01' E 002°56'.

Length 131 m; beam 19 m.

Type: Ship. MMSI: 636091098.

Date/timePositionNaut miles runAvg speedWind from/ knotsBaromVisibWave heightAir tempDewpointWater temp
2015-May-26 20:31N 37°01' E 002°56'1717.0
2015-May-26 19:30N 36°58' E 002°34'5516.9
2015-May-26 16:15N 36°48' E 001°27'1216.9
2015-May-26 15:33N 36°47' E 001°12'1717.3
2015-May-26 14:33N 36°44' E 000°51'3717.6
2015-May-26 12:27N 36°38' E 000°05'3316.6
2015-May-26 10:28N 36°32' W 000°35'8216.3
2015-May-26 05:26N 36°19' W 002°16'1416.2
2015-May-26 04:33N 36°18' W 002°33'1716.5
2015-May-26 03:32N 36°17' W 002°54'10816.8
2015-May-25 21:05N 36°07' W 005°07'917.1
2015-May-25 20:32N 36°05' W 005°19'4 3.8
2015-May-25 19:28N 36°08' W 005°22'0 0.0
2015-May-25 18:22N 36°08' W 005°22'0 0.0
2015-May-25 17:16N 36°08' W 005°22'0 0.0
2015-May-25 15:28N 36°08' W 005°22'0 0.1
2015-May-25 14:28N 36°08' W 005°22'0 0.0
2015-May-25 12:31N 36°08' W 005°22'2 1.6
2015-May-25 11:20N 36°06' W 005°22'911.5
2015-May-25 10:34N 35°58' W 005°26'18915.7
2015-May-24 22:30N 35°28' W 009°16'  
Track history (hours):
 
Tides and Currents Weather Stations Pressure Air Temp Water Temp Dewpoint Dewpoint Depression Visibility Wind Speed Wind Dir Waves Ship Positions

Prince Of Seas

Last reported at 2015-May-26 20:31 UTC. Time now 2015-May-28 02:02 UTC.
Position N 37°01' E 002°56'.

Length 131 m; beam 19 m.

Type: Ship. MMSI: 636091098.

Date/timePositionNaut miles runAvg speedWind from/ knotsBaromVisibWave heightAir tempDewpointWater temp
2015-May-26 20:31N 37°01' E 002°56'1717.0
2015-May-26 19:30N 36°58' E 002°34'5516.9
2015-May-26 16:15N 36°48' E 001°27'1216.9
2015-May-26 15:33N 36°47' E 001°12'1717.3
2015-May-26 14:33N 36°44' E 000°51'3717.6
2015-May-26 12:27N 36°38' E 000°05'3316.6
2015-May-26 10:28N 36°32' W 000°35'8216.3
2015-May-26 05:26N 36°19' W 002°16'1416.2
2015-May-26 04:33N 36°18' W 002°33'1716.5
2015-May-26 03:32N 36°17' W 002°54'10816.8
2015-May-25 21:05N 36°07' W 005°07'917.1
2015-May-25 20:32N 36°05' W 005°19'4 3.8
2015-May-25 19:28N 36°08' W 005°22'0 0.0
2015-May-25 18:22N 36°08' W 005°22'0 0.0
2015-May-25 17:16N 36°08' W 005°22'0 0.0
2015-May-25 15:28N 36°08' W 005°22'0 0.1
2015-May-25 14:28N 36°08' W 005°22'0 0.0
2015-May-25 12:31N 36°08' W 005°22'2 1.6
2015-May-25 11:20N 36°06' W 005°22'911.5
2015-May-25 10:34N 35°58' W 005°26'18915.7
2015-May-24 22:30N 35°28' W 009°16'  

Dump ship's entire track history